Cave, Illinois
Current Conditions -  °F | °C
As of 10:15 PM on Sunday 25 Jan 2015 (Local Time) from KHSB Reporting Station
Overcast Overcast  
Wind Chill: 26°   Ceiling: 900
Heat Index: 35°   Visibility: 10mi
Dew Point: 33°   Wind: 13mph
Humidity: 95%   Direction: 340°NNW
Pressure: 29.87"   Gusts: 22mph
Location:  37.8635°N, 88.7619°W
Report Text: KHSB 260415Z AUTO 34011G19KT 10SM OVC009 02/01 A2987 RMK AO2 T00150008
Loading
Personal Weather Stations






























Interactive Weather Map New forecast layout! Learn more

10-Day Weather Forecast

Advertisements
Track Severe Weather on mobile